sensor_id;sensor_type;location;lat;lon;timestamp;pressure;altitude;pressure_sealevel;temperature
33267;BMP180;19638;49.080;11.896;2023-04-01T00:00:56;94871.00;;;8.90
33267;BMP180;19638;49.080;11.896;2023-04-01T00:05:03;94867.00;;;8.90
33267;BMP180;19638;49.080;11.896;2023-04-01T00:09:09;94864.00;;;8.90
33267;BMP180;19638;49.080;11.896;2023-04-01T00:13:12;94862.00;;;8.90
33267;BMP180;19638;49.080;11.896;2023-04-01T00:17:16;94874.00;;;8.90
33267;BMP180;19638;49.080;11.896;2023-04-01T00:21:22;94877.00;;;8.90
33267;BMP180;19638;49.080;11.896;2023-04-01T00:25:27;94874.00;;;9.00
33267;BMP180;19638;49.080;11.896;2023-04-01T00:29:37;94876.00;;;9.00
33267;BMP180;19638;49.080;11.896;2023-04-01T00:33:40;94868.00;;;9.00
33267;BMP180;19638;49.080;11.896;2023-04-01T00:37:45;94860.00;;;9.00
33267;BMP180;19638;49.080;11.896;2023-04-01T00:41:48;94852.00;;;9.00
33267;BMP180;19638;49.080;11.896;2023-04-01T00:45:55;94867.00;;;8.90
33267;BMP180;19638;49.080;11.896;2023-04-01T00:50:01;94862.00;;;8.90
33267;BMP180;19638;49.080;11.896;2023-04-01T00:54:07;94868.00;;;8.80
33267;BMP180;19638;49.080;11.896;2023-04-01T00:58:15;94852.00;;;8.80
33267;BMP180;19638;49.080;11.896;2023-04-01T01:02:20;94851.00;;;8.70
33267;BMP180;19638;49.080;11.896;2023-04-01T01:06:30;94857.00;;;8.70
33267;BMP180;19638;49.080;11.896;2023-04-01T01:10:43;94848.00;;;8.70
33267;BMP180;19638;49.080;11.896;2023-04-01T01:14:59;94852.00;;;8.70
33267;BMP180;19638;49.080;11.896;2023-04-01T01:19:11;94851.00;;;8.70
33267;BMP180;19638;49.080;11.896;2023-04-01T01:28:02;94851.00;;;8.70
33267;BMP180;19638;49.080;11.896;2023-04-01T01:32:23;94854.00;;;8.80
33267;BMP180;19638;49.080;11.896;2023-04-01T01:36:40;94852.00;;;8.80
33267;BMP180;19638;49.080;11.896;2023-04-01T01:40:49;94846.00;;;8.90
33267;BMP180;19638;49.080;11.896;2023-04-01T01:44:56;94856.00;;;8.90
33267;BMP180;19638;49.080;11.896;2023-04-01T01:49:03;94849.00;;;8.90
33267;BMP180;19638;49.080;11.896;2023-04-01T01:53:11;94852.00;;;8.90
33267;BMP180;19638;49.080;11.896;2023-04-01T01:57:17;94858.00;;;9.00
33267;BMP180;19638;49.080;11.896;2023-04-01T02:01:26;94847.00;;;9.00
33267;BMP180;19638;49.080;11.896;2023-04-01T02:05:31;94858.00;;;9.00
33267;BMP180;19638;49.080;11.896;2023-04-01T02:09:37;94855.00;;;9.00
33267;BMP180;19638;49.080;11.896;2023-04-01T02:13:47;94850.00;;;8.90
33267;BMP180;19638;49.080;11.896;2023-04-01T02:17:56;94846.00;;;8.80
33267;BMP180;19638;49.080;11.896;2023-04-01T02:22:07;94850.00;;;8.70
33267;BMP180;19638;49.080;11.896;2023-04-01T02:26:17;94852.00;;;8.80
33267;BMP180;19638;49.080;11.896;2023-04-01T02:30:22;94848.00;;;8.80
33267;BMP180;19638;49.080;11.896;2023-04-01T02:34:28;94856.00;;;8.80
33267;BMP180;19638;49.080;11.896;2023-04-01T02:38:33;94863.00;;;8.80
33267;BMP180;19638;49.080;11.896;2023-04-01T02:42:40;94862.00;;;8.80
33267;BMP180;19638;49.080;11.896;2023-04-01T02:46:45;94867.00;;;8.90
33267;BMP180;19638;49.080;11.896;2023-04-01T02:50:48;94869.00;;;8.90
33267;BMP180;19638;49.080;11.896;2023-04-01T02:54:54;94872.00;;;8.90
33267;BMP180;19638;49.080;11.896;2023-04-01T02:59:12;94880.00;;;8.90
33267;BMP180;19638;49.080;11.896;2023-04-01T03:03:15;94871.00;;;8.90
33267;BMP180;19638;49.080;11.896;2023-04-01T03:07:18;94890.00;;;8.90
33267;BMP180;19638;49.080;11.896;2023-04-01T03:11:21;94893.00;;;8.90
33267;BMP180;19638;49.080;11.896;2023-04-01T03:15:26;94894.00;;;8.80
33267;BMP180;19638;49.080;11.896;2023-04-01T03:19:30;94894.00;;;8.80
33267;BMP180;19638;49.080;11.896;2023-04-01T03:23:33;94890.00;;;8.90
33267;BMP180;19638;49.080;11.896;2023-04-01T03:27:36;94886.00;;;8.90
33267;BMP180;19638;49.080;11.896;2023-04-01T03:31:41;94888.00;;;8.90
33267;BMP180;19638;49.080;11.896;2023-04-01T03:35:44;94888.00;;;8.90
33267;BMP180;19638;49.080;11.896;2023-04-01T03:39:52;94899.00;;;8.90
33267;BMP180;19638;49.080;11.896;2023-04-01T03:43:55;94897.00;;;8.90
33267;BMP180;19638;49.080;11.896;2023-04-01T03:47:59;94899.00;;;8.90
33267;BMP180;19638;49.080;11.896;2023-04-01T03:52:03;94899.00;;;8.90
33267;BMP180;19638;49.080;11.896;2023-04-01T03:56:24;94902.00;;;8.80
33267;BMP180;19638;49.080;11.896;2023-04-01T04:00:28;94894.00;;;8.90
33267;BMP180;19638;49.080;11.896;2023-04-01T04:04:34;94894.00;;;8.80
33267;BMP180;19638;49.080;11.896;2023-04-01T04:08:42;94909.00;;;8.80
33267;BMP180;19638;49.080;11.896;2023-04-01T04:12:46;94907.00;;;8.80
33267;BMP180;19638;49.080;11.896;2023-04-01T04:16:49;94913.00;;;8.80
33267;BMP180;19638;49.080;11.896;2023-04-01T04:20:53;94915.00;;;8.70
33267;BMP180;19638;49.080;11.896;2023-04-01T04:24:56;94922.00;;;8.70
33267;BMP180;19638;49.080;11.896;2023-04-01T04:29:00;94922.00;;;8.70
33267;BMP180;19638;49.080;11.896;2023-04-01T04:33:03;94916.00;;;8.70
33267;BMP180;19638;49.080;11.896;2023-04-01T04:37:07;94917.00;;;8.60
33267;BMP180;19638;49.080;11.896;2023-04-01T04:41:18;94928.00;;;8.60
33267;BMP180;19638;49.080;11.896;2023-04-01T04:45:24;94922.00;;;8.50
33267;BMP180;19638;49.080;11.896;2023-04-01T04:49:27;94922.00;;;8.40
33267;BMP180;19638;49.080;11.896;2023-04-01T04:53:35;94927.00;;;8.30
33267;BMP180;19638;49.080;11.896;2023-04-01T04:57:41;94931.00;;;8.40
33267;BMP180;19638;49.080;11.896;2023-04-01T05:01:44;94937.00;;;8.50
33267;BMP180;19638;49.080;11.896;2023-04-01T05:05:51;94941.00;;;8.60
33267;BMP180;19638;49.080;11.896;2023-04-01T05:09:57;94940.00;;;8.60
33267;BMP180;19638;49.080;11.896;2023-04-01T05:14:02;94938.00;;;8.70
33267;BMP180;19638;49.080;11.896;2023-04-01T05:18:10;94947.00;;;8.80
33267;BMP180;19638;49.080;11.896;2023-04-01T05:22:13;94939.00;;;8.80
33267;BMP180;19638;49.080;11.896;2023-04-01T05:26:17;94945.00;;;8.90
33267;BMP180;19638;49.080;11.896;2023-04-01T05:30:20;94951.00;;;8.90
33267;BMP180;19638;49.080;11.896;2023-04-01T05:34:24;94957.00;;;8.90
33267;BMP180;19638;49.080;11.896;2023-04-01T05:38:28;94946.00;;;9.00
33267;BMP180;19638;49.080;11.896;2023-04-01T05:42:33;94949.00;;;9.10
33267;BMP180;19638;49.080;11.896;2023-04-01T05:46:39;94951.00;;;9.10
33267;BMP180;19638;49.080;11.896;2023-04-01T05:50:42;94946.00;;;9.20
33267;BMP180;19638;49.080;11.896;2023-04-01T05:54:45;94952.00;;;9.20
33267;BMP180;19638;49.080;11.896;2023-04-01T05:58:51;94956.00;;;9.30
33267;BMP180;19638;49.080;11.896;2023-04-01T06:02:59;94950.00;;;9.40
33267;BMP180;19638;49.080;11.896;2023-04-01T06:07:13;94960.00;;;9.40
33267;BMP180;19638;49.080;11.896;2023-04-01T06:11:24;94949.00;;;9.40
33267;BMP180;19638;49.080;11.896;2023-04-01T06:15:39;94960.00;;;9.50
33267;BMP180;19638;49.080;11.896;2023-04-01T06:19:51;94958.00;;;9.50
33267;BMP180;19638;49.080;11.896;2023-04-01T06:24:01;94974.00;;;9.50
33267;BMP180;19638;49.080;11.896;2023-04-01T06:28:40;94972.00;;;9.60
33267;BMP180;19638;49.080;11.896;2023-04-01T06:33:13;94980.00;;;9.70
33267;BMP180;19638;49.080;11.896;2023-04-01T06:42:12;94979.00;;;9.60
33267;BMP180;19638;49.080;11.896;2023-04-01T06:46:22;94981.00;;;9.60
33267;BMP180;19638;49.080;11.896;2023-04-01T06:50:37;94983.00;;;9.60
33267;BMP180;19638;49.080;11.896;2023-04-01T06:54:47;94976.00;;;9.80
33267;BMP180;19638;49.080;11.896;2023-04-01T06:58:58;94974.00;;;9.90
33267;BMP180;19638;49.080;11.896;2023-04-01T07:03:16;94987.00;;;10.00
33267;BMP180;19638;49.080;11.896;2023-04-01T07:07:28;94967.00;;;10.30
33267;BMP180;19638;49.080;11.896;2023-04-01T07:11:35;94969.00;;;10.60
33267;BMP180;19638;49.080;11.896;2023-04-01T07:15:54;94974.00;;;10.80
33267;BMP180;19638;49.080;11.896;2023-04-01T07:20:03;94978.00;;;10.90
33267;BMP180;19638;49.080;11.896;2023-04-01T07:24:16;94966.00;;;11.00
33267;BMP180;19638;49.080;11.896;2023-04-01T07:28:30;94967.00;;;11.20
33267;BMP180;19638;49.080;11.896;2023-04-01T07:32:38;94970.00;;;11.20
33267;BMP180;19638;49.080;11.896;2023-04-01T07:36:48;94973.00;;;11.20
33267;BMP180;19638;49.080;11.896;2023-04-01T07:41:05;94969.00;;;11.20
33267;BMP180;19638;49.080;11.896;2023-04-01T07:45:22;94971.00;;;11.20
33267;BMP180;19638;49.080;11.896;2023-04-01T07:49:33;94974.00;;;11.20
33267;BMP180;19638;49.080;11.896;2023-04-01T07:53:46;94978.00;;;11.40
33267;BMP180;19638;49.080;11.896;2023-04-01T07:57:57;94977.00;;;11.50
33267;BMP180;19638;49.080;11.896;2023-04-01T08:02:17;94968.00;;;11.70
33267;BMP180;19638;49.080;11.896;2023-04-01T08:06:28;94971.00;;;11.70
33267;BMP180;19638;49.080;11.896;2023-04-01T08:10:42;94977.00;;;11.90
33267;BMP180;19638;49.080;11.896;2023-04-01T08:15:00;94967.00;;;12.30
33267;BMP180;19638;49.080;11.896;2023-04-01T08:19:13;94963.00;;;12.50
33267;BMP180;19638;49.080;11.896;2023-04-01T08:23:21;94965.00;;;12.80
33267;BMP180;19638;49.080;11.896;2023-04-01T08:27:31;94965.00;;;13.10
33267;BMP180;19638;49.080;11.896;2023-04-01T08:31:46;94959.00;;;13.50
33267;BMP180;19638;49.080;11.896;2023-04-01T08:35:55;94961.00;;;13.90
33267;BMP180;19638;49.080;11.896;2023-04-01T08:40:02;94955.00;;;13.90
33267;BMP180;19638;49.080;11.896;2023-04-01T08:49:02;94961.00;;;13.90
33267;BMP180;19638;49.080;11.896;2023-04-01T08:53:14;94960.00;;;13.80
33267;BMP180;19638;49.080;11.896;2023-04-01T08:57:31;94958.00;;;14.10
33267;BMP180;19638;49.080;11.896;2023-04-01T09:01:50;94934.00;;;14.30
33267;BMP180;19638;49.080;11.896;2023-04-01T09:06:36;94934.00;;;14.00
33267;BMP180;19638;49.080;11.896;2023-04-01T09:11:17;94940.00;;;14.00
33267;BMP180;19638;49.080;11.896;2023-04-01T09:15:57;94947.00;;;14.00
33267;BMP180;19638;49.080;11.896;2023-04-01T09:20:23;94949.00;;;14.10
33267;BMP180;19638;49.080;11.896;2023-04-01T09:24:46;94950.00;;;14.00
33267;BMP180;19638;49.080;11.896;2023-04-01T09:28:59;94951.00;;;13.70
33267;BMP180;19638;49.080;11.896;2023-04-01T09:37:50;94956.00;;;13.60
33267;BMP180;19638;49.080;11.896;2023-04-01T09:42:21;94938.00;;;13.70
33267;BMP180;19638;49.080;11.896;2023-04-01T09:46:36;94954.00;;;13.80
33267;BMP180;19638;49.080;11.896;2023-04-01T09:50:48;94945.00;;;14.20
33267;BMP180;19638;49.080;11.896;2023-04-01T09:55:03;94959.00;;;14.20
33267;BMP180;19638;49.080;11.896;2023-04-01T10:08:58;94984.00;;;13.30
33267;BMP180;19638;49.080;11.896;2023-04-01T10:13:31;94941.00;;;13.20
33267;BMP180;19638;49.080;11.896;2023-04-01T10:17:54;94960.00;;;13.10
33267;BMP180;19638;49.080;11.896;2023-04-01T10:22:30;94952.00;;;13.20
33267;BMP180;19638;49.080;11.896;2023-04-01T10:27:16;94953.00;;;13.30
33267;BMP180;19638;49.080;11.896;2023-04-01T10:31:47;94941.00;;;13.40
33267;BMP180;19638;49.080;11.896;2023-04-01T10:36:32;94939.00;;;13.40
33267;BMP180;19638;49.080;11.896;2023-04-01T10:40:57;94941.00;;;13.50
33267;BMP180;19638;49.080;11.896;2023-04-01T10:49:48;94941.00;;;13.80
33267;BMP180;19638;49.080;11.896;2023-04-01T10:54:13;94930.00;;;14.20
33267;BMP180;19638;49.080;11.896;2023-04-01T11:17:21;94948.00;;;13.50
33267;BMP180;19638;49.080;11.896;2023-04-01T11:22:07;94946.00;;;12.80
33267;BMP180;19638;49.080;11.896;2023-04-01T11:26:25;94957.00;;;12.30
33267;BMP180;19638;49.080;11.896;2023-04-01T11:30:49;94958.00;;;12.00
33267;BMP180;19638;49.080;11.896;2023-04-01T11:35:09;94970.00;;;11.90
33267;BMP180;19638;49.080;11.896;2023-04-01T11:39:24;94966.00;;;11.60
33267;BMP180;19638;49.080;11.896;2023-04-01T11:43:37;94963.00;;;11.40
33267;BMP180;19638;49.080;11.896;2023-04-01T11:48:09;94965.00;;;11.20
33267;BMP180;19638;49.080;11.896;2023-04-01T11:52:23;94968.00;;;11.20
33267;BMP180;19638;49.080;11.896;2023-04-01T11:56:39;94965.00;;;11.10
33267;BMP180;19638;49.080;11.896;2023-04-01T12:01:07;94970.00;;;11.10
33267;BMP180;19638;49.080;11.896;2023-04-01T12:05:36;94960.00;;;11.20
33267;BMP180;19638;49.080;11.896;2023-04-01T12:09:48;94970.00;;;11.20
33267;BMP180;19638;49.080;11.896;2023-04-01T12:14:01;94965.00;;;11.20
33267;BMP180;19638;49.080;11.896;2023-04-01T12:18:15;94976.00;;;11.00
33267;BMP180;19638;49.080;11.896;2023-04-01T12:22:30;94962.00;;;10.80
33267;BMP180;19638;49.080;11.896;2023-04-01T12:27:05;94981.00;;;10.70
33267;BMP180;19638;49.080;11.896;2023-04-01T12:31:20;94980.00;;;10.60
33267;BMP180;19638;49.080;11.896;2023-04-01T12:35:27;94973.00;;;10.40
33267;BMP180;19638;49.080;11.896;2023-04-01T12:44:29;94972.00;;;10.10
33267;BMP180;19638;49.080;11.896;2023-04-01T12:49:05;94986.00;;;10.10
33267;BMP180;19638;49.080;11.896;2023-04-01T12:53:30;94967.00;;;10.20
33267;BMP180;19638;49.080;11.896;2023-04-01T13:02:13;94975.00;;;10.40
33267;BMP180;19638;49.080;11.896;2023-04-01T13:06:29;94980.00;;;10.30
33267;BMP180;19638;49.080;11.896;2023-04-01T13:11:02;94990.00;;;10.20
33267;BMP180;19638;49.080;11.896;2023-04-01T13:15:20;94990.00;;;10.30
33267;BMP180;19638;49.080;11.896;2023-04-01T13:19:29;94986.00;;;10.40
33267;BMP180;19638;49.080;11.896;2023-04-01T13:23:41;94994.00;;;10.40
33267;BMP180;19638;49.080;11.896;2023-04-01T13:27:53;94996.00;;;10.50
33267;BMP180;19638;49.080;11.896;2023-04-01T13:32:10;94993.00;;;10.50
33267;BMP180;19638;49.080;11.896;2023-04-01T13:36:25;94997.00;;;10.50
33267;BMP180;19638;49.080;11.896;2023-04-01T13:40:40;94999.00;;;10.50
33267;BMP180;19638;49.080;11.896;2023-04-01T13:45:09;95003.00;;;10.50
33267;BMP180;19638;49.080;11.896;2023-04-01T13:49:59;95004.00;;;10.60
33267;BMP180;19638;49.080;11.896;2023-04-01T13:59:10;95003.00;;;10.40
33267;BMP180;19638;49.080;11.896;2023-04-01T14:03:52;95005.00;;;10.50
33267;BMP180;19638;49.080;11.896;2023-04-01T14:08:26;95020.00;;;10.40
33267;BMP180;19638;49.080;11.896;2023-04-01T14:12:40;95016.00;;;10.40
33267;BMP180;19638;49.080;11.896;2023-04-01T14:17:01;95013.00;;;10.50
33267;BMP180;19638;49.080;11.896;2023-04-01T14:21:23;95015.00;;;10.40
33267;BMP180;19638;49.080;11.896;2023-04-01T14:25:45;95013.00;;;10.40
33267;BMP180;19638;49.080;11.896;2023-04-01T14:30:00;95000.00;;;10.20
33267;BMP180;19638;49.080;11.896;2023-04-01T14:34:21;95006.00;;;10.10
33267;BMP180;19638;49.080;11.896;2023-04-01T14:38:39;95016.00;;;10.00
33267;BMP180;19638;49.080;11.896;2023-04-01T14:43:03;95020.00;;;10.00
33267;BMP180;19638;49.080;11.896;2023-04-01T14:51:51;95014.00;;;10.00
33267;BMP180;19638;49.080;11.896;2023-04-01T14:55:59;95029.00;;;10.00
33267;BMP180;19638;49.080;11.896;2023-04-01T15:00:17;95014.00;;;10.00
33267;BMP180;19638;49.080;11.896;2023-04-01T15:04:41;95021.00;;;10.00
33267;BMP180;19638;49.080;11.896;2023-04-01T15:08:53;95027.00;;;10.10
33267;BMP180;19638;49.080;11.896;2023-04-01T15:13:12;95019.00;;;10.20
33267;BMP180;19638;49.080;11.896;2023-04-01T15:17:47;95021.00;;;10.30
33267;BMP180;19638;49.080;11.896;2023-04-01T15:22:04;95028.00;;;10.20
33267;BMP180;19638;49.080;11.896;2023-04-01T15:26:38;95023.00;;;10.20
33267;BMP180;19638;49.080;11.896;2023-04-01T15:30:50;95029.00;;;10.30
33267;BMP180;19638;49.080;11.896;2023-04-01T15:34:59;95032.00;;;10.30
33267;BMP180;19638;49.080;11.896;2023-04-01T15:39:11;95029.00;;;10.40
33267;BMP180;19638;49.080;11.896;2023-04-01T15:43:26;95029.00;;;10.40
33267;BMP180;19638;49.080;11.896;2023-04-01T15:47:42;95040.00;;;10.40
33267;BMP180;19638;49.080;11.896;2023-04-01T15:52:10;95041.00;;;10.50
33267;BMP180;19638;49.080;11.896;2023-04-01T15:56:28;95046.00;;;10.50
33267;BMP180;19638;49.080;11.896;2023-04-01T16:00:45;95047.00;;;10.50
33267;BMP180;19638;49.080;11.896;2023-04-01T16:04:57;95041.00;;;10.50
33267;BMP180;19638;49.080;11.896;2023-04-01T16:09:23;95043.00;;;10.40
33267;BMP180;19638;49.080;11.896;2023-04-01T16:13:42;95045.00;;;10.40
33267;BMP180;19638;49.080;11.896;2023-04-01T16:17:59;95050.00;;;10.30
33267;BMP180;19638;49.080;11.896;2023-04-01T16:22:11;95046.00;;;10.30
33267;BMP180;19638;49.080;11.896;2023-04-01T16:26:24;95053.00;;;10.30
33267;BMP180;19638;49.080;11.896;2023-04-01T16:30:35;95061.00;;;10.20
33267;BMP180;19638;49.080;11.896;2023-04-01T16:34:44;95056.00;;;10.10
33267;BMP180;19638;49.080;11.896;2023-04-01T16:38:52;95065.00;;;10.10
33267;BMP180;19638;49.080;11.896;2023-04-01T16:43:06;95064.00;;;10.10
33267;BMP180;19638;49.080;11.896;2023-04-01T16:47:22;95069.00;;;10.10
33267;BMP180;19638;49.080;11.896;2023-04-01T16:51:37;95074.00;;;10.10
33267;BMP180;19638;49.080;11.896;2023-04-01T16:55:55;95085.00;;;10.00
33267;BMP180;19638;49.080;11.896;2023-04-01T17:00:16;95080.00;;;9.90
33267;BMP180;19638;49.080;11.896;2023-04-01T17:04:29;95090.00;;;9.90
33267;BMP180;19638;49.080;11.896;2023-04-01T17:08:58;95098.00;;;9.90
33267;BMP180;19638;49.080;11.896;2023-04-01T17:13:21;95102.00;;;9.80
33267;BMP180;19638;49.080;11.896;2023-04-01T17:17:38;95101.00;;;9.80
33267;BMP180;19638;49.080;11.896;2023-04-01T17:21:57;95106.00;;;9.70
33267;BMP180;19638;49.080;11.896;2023-04-01T17:26:17;95111.00;;;9.70
33267;BMP180;19638;49.080;11.896;2023-04-01T17:30:30;95103.00;;;9.70
33267;BMP180;19638;49.080;11.896;2023-04-01T17:34:55;95108.00;;;9.60
33267;BMP180;19638;49.080;11.896;2023-04-01T17:39:13;95107.00;;;9.60
33267;BMP180;19638;49.080;11.896;2023-04-01T17:43:28;95121.00;;;9.60
33267;BMP180;19638;49.080;11.896;2023-04-01T17:47:43;95128.00;;;9.50
33267;BMP180;19638;49.080;11.896;2023-04-01T17:51:58;95128.00;;;9.60
33267;BMP180;19638;49.080;11.896;2023-04-01T17:56:12;95133.00;;;9.50
33267;BMP180;19638;49.080;11.896;2023-04-01T18:00:23;95129.00;;;9.50
33267;BMP180;19638;49.080;11.896;2023-04-01T18:09:45;95130.00;;;9.50
33267;BMP180;19638;49.080;11.896;2023-04-01T18:14:13;95137.00;;;9.50
33267;BMP180;19638;49.080;11.896;2023-04-01T18:18:40;95144.00;;;9.50
33267;BMP180;19638;49.080;11.896;2023-04-01T18:22:49;95154.00;;;9.50
33267;BMP180;19638;49.080;11.896;2023-04-01T18:27:04;95158.00;;;9.60
33267;BMP180;19638;49.080;11.896;2023-04-01T18:31:15;95153.00;;;9.60
33267;BMP180;19638;49.080;11.896;2023-04-01T18:35:29;95168.00;;;9.60
33267;BMP180;19638;49.080;11.896;2023-04-01T18:39:40;95163.00;;;9.70
33267;BMP180;19638;49.080;11.896;2023-04-01T18:43:56;95174.00;;;9.70
33267;BMP180;19638;49.080;11.896;2023-04-01T18:48:30;95188.00;;;9.70
33267;BMP180;19638;49.080;11.896;2023-04-01T18:52:39;95191.00;;;9.70
33267;BMP180;19638;49.080;11.896;2023-04-01T18:56:44;95194.00;;;9.70
33267;BMP180;19638;49.080;11.896;2023-04-01T19:01:03;95202.00;;;9.70
33267;BMP180;19638;49.080;11.896;2023-04-01T19:05:11;95196.00;;;9.60
33267;BMP180;19638;49.080;11.896;2023-04-01T19:09:24;95203.00;;;9.70
33267;BMP180;19638;49.080;11.896;2023-04-01T19:13:32;95215.00;;;9.60
33267;BMP180;19638;49.080;11.896;2023-04-01T19:17:47;95219.00;;;9.60
33267;BMP180;19638;49.080;11.896;2023-04-01T19:21:56;95216.00;;;9.70
33267;BMP180;19638;49.080;11.896;2023-04-01T19:26:04;95227.00;;;9.70
33267;BMP180;19638;49.080;11.896;2023-04-01T19:30:21;95222.00;;;9.60
33267;BMP180;19638;49.080;11.896;2023-04-01T19:34:35;95231.00;;;9.50
33267;BMP180;19638;49.080;11.896;2023-04-01T19:38:52;95233.00;;;9.50
33267;BMP180;19638;49.080;11.896;2023-04-01T19:43:03;95224.00;;;9.40
33267;BMP180;19638;49.080;11.896;2023-04-01T19:47:19;95233.00;;;9.50
33267;BMP180;19638;49.080;11.896;2023-04-01T19:51:32;95233.00;;;9.50
33267;BMP180;19638;49.080;11.896;2023-04-01T19:55:46;95239.00;;;9.50
33267;BMP180;19638;49.080;11.896;2023-04-01T19:59:54;95240.00;;;9.50
33267;BMP180;19638;49.080;11.896;2023-04-01T20:04:04;95247.00;;;9.60
33267;BMP180;19638;49.080;11.896;2023-04-01T20:08:17;95248.00;;;9.60
33267;BMP180;19638;49.080;11.896;2023-04-01T20:12:38;95249.00;;;9.60
33267;BMP180;19638;49.080;11.896;2023-04-01T20:16:55;95249.00;;;9.60
33267;BMP180;19638;49.080;11.896;2023-04-01T20:21:16;95248.00;;;9.50
33267;BMP180;19638;49.080;11.896;2023-04-01T20:25:24;95261.00;;;9.50
33267;BMP180;19638;49.080;11.896;2023-04-01T20:29:39;95263.00;;;9.60
33267;BMP180;19638;49.080;11.896;2023-04-01T20:34:07;95259.00;;;9.60
33267;BMP180;19638;49.080;11.896;2023-04-01T20:47:50;95263.00;;;9.50
33267;BMP180;19638;49.080;11.896;2023-04-01T20:52:06;95277.00;;;9.60
33267;BMP180;19638;49.080;11.896;2023-04-01T20:56:37;95271.00;;;9.60
33267;BMP180;19638;49.080;11.896;2023-04-01T21:00:55;95276.00;;;9.70
33267;BMP180;19638;49.080;11.896;2023-04-01T21:09:53;95278.00;;;9.60
33267;BMP180;19638;49.080;11.896;2023-04-01T21:14:14;95283.00;;;9.60
33267;BMP180;19638;49.080;11.896;2023-04-01T21:18:39;95276.00;;;9.60
33267;BMP180;19638;49.080;11.896;2023-04-01T21:22:53;95286.00;;;9.50
33267;BMP180;19638;49.080;11.896;2023-04-01T21:27:09;95289.00;;;9.50
33267;BMP180;19638;49.080;11.896;2023-04-01T21:31:23;95294.00;;;9.50
33267;BMP180;19638;49.080;11.896;2023-04-01T21:35:36;95290.00;;;9.40
33267;BMP180;19638;49.080;11.896;2023-04-01T21:39:53;95294.00;;;9.40
33267;BMP180;19638;49.080;11.896;2023-04-01T21:44:31;95300.00;;;9.30
33267;BMP180;19638;49.080;11.896;2023-04-01T21:48:52;95304.00;;;9.30
33267;BMP180;19638;49.080;11.896;2023-04-01T21:53:29;95303.00;;;9.30
33267;BMP180;19638;49.080;11.896;2023-04-01T21:58:07;95308.00;;;9.40
33267;BMP180;19638;49.080;11.896;2023-04-01T22:02:40;95313.00;;;9.40
33267;BMP180;19638;49.080;11.896;2023-04-01T22:06:51;95311.00;;;9.40
33267;BMP180;19638;49.080;11.896;2023-04-01T22:11:10;95309.00;;;9.50
33267;BMP180;19638;49.080;11.896;2023-04-01T22:15:23;95313.00;;;9.50
33267;BMP180;19638;49.080;11.896;2023-04-01T22:19:38;95319.00;;;9.50
33267;BMP180;19638;49.080;11.896;2023-04-01T22:23:47;95318.00;;;9.50
33267;BMP180;19638;49.080;11.896;2023-04-01T22:28:03;95324.00;;;9.60
33267;BMP180;19638;49.080;11.896;2023-04-01T22:32:11;95320.00;;;9.50
33267;BMP180;19638;49.080;11.896;2023-04-01T22:36:25;95322.00;;;9.50
33267;BMP180;19638;49.080;11.896;2023-04-01T22:40:34;95323.00;;;9.50
33267;BMP180;19638;49.080;11.896;2023-04-01T22:44:51;95334.00;;;9.50
33267;BMP180;19638;49.080;11.896;2023-04-01T22:49:02;95331.00;;;9.50
33267;BMP180;19638;49.080;11.896;2023-04-01T22:53:17;95333.00;;;9.40
33267;BMP180;19638;49.080;11.896;2023-04-01T22:57:37;95336.00;;;9.40
33267;BMP180;19638;49.080;11.896;2023-04-01T23:01:44;95341.00;;;9.40
33267;BMP180;19638;49.080;11.896;2023-04-01T23:05:50;95343.00;;;9.40
33267;BMP180;19638;49.080;11.896;2023-04-01T23:09:56;95349.00;;;9.40
33267;BMP180;19638;49.080;11.896;2023-04-01T23:18:44;95361.00;;;9.50
33267;BMP180;19638;49.080;11.896;2023-04-01T23:22:59;95361.00;;;9.50
33267;BMP180;19638;49.080;11.896;2023-04-01T23:27:09;95367.00;;;9.50
33267;BMP180;19638;49.080;11.896;2023-04-01T23:31:32;95370.00;;;9.50
33267;BMP180;19638;49.080;11.896;2023-04-01T23:35:46;95376.00;;;9.50
33267;BMP180;19638;49.080;11.896;2023-04-01T23:39:52;95374.00;;;9.50
33267;BMP180;19638;49.080;11.896;2023-04-01T23:44:01;95382.00;;;9.60
33267;BMP180;19638;49.080;11.896;2023-04-01T23:48:05;95383.00;;;9.50
33267;BMP180;19638;49.080;11.896;2023-04-01T23:52:13;95384.00;;;9.50
33267;BMP180;19638;49.080;11.896;2023-04-01T23:56:17;95390.00;;;9.50
